createdAt,value
2023-03-20T00:00:18.729Z,51.24
2023-03-20T00:01:42.307Z,51.29
2023-03-20T00:03:04.945Z,51.59
2023-03-20T00:04:26.300Z,51.61
2023-03-20T00:05:48.568Z,51.68
2023-03-20T00:07:12.746Z,51.67
2023-03-20T00:08:34.918Z,51.89
2023-03-20T00:09:57.981Z,51.68
2023-03-20T00:11:30.771Z,51.75
2023-03-20T00:12:52.125Z,51.79
2023-03-20T00:14:16.970Z,52.26
2023-03-20T00:15:41.047Z,52.37
2023-03-20T00:17:10.735Z,52.49
2023-03-20T00:18:32.620Z,52.30
2023-03-20T00:19:54.683Z,52.40
2023-03-20T00:21:21.343Z,52.54
2023-03-20T00:22:44.968Z,52.43
2023-03-20T00:24:08.359Z,52.73
2023-03-20T00:25:31.218Z,52.73
2023-03-20T00:26:55.600Z,52.68
2023-03-20T00:28:40.861Z,52.55
2023-03-20T00:30:03.146Z,52.77
2023-03-20T00:31:30.595Z,52.81
2023-03-20T00:32:54.672Z,52.59
2023-03-20T00:34:20.709Z,52.75
2023-03-20T00:35:42.198Z,52.75
2023-03-20T00:37:04.795Z,52.68
2023-03-20T00:38:27.685Z,52.90
2023-03-20T00:39:49.978Z,52.89
2023-03-20T00:41:23.448Z,53.05
2023-03-20T00:42:47.887Z,53.05
2023-03-20T00:44:22.813Z,53.20
2023-03-20T00:45:49.846Z,53.16
2023-03-20T00:47:14.797Z,53.01
2023-03-20T00:48:40.476Z,53.16
2023-03-20T00:50:01.716Z,53.13
2023-03-20T00:51:26.871Z,53.32
2023-03-20T00:52:48.643Z,53.29
2023-03-20T00:54:13.899Z,53.40
2023-03-20T00:55:36.907Z,53.39
2023-03-20T00:57:03.245Z,53.68
2023-03-20T00:58:25.705Z,53.76
2023-03-20T00:59:55.678Z,53.70
2023-03-20T01:01:20.380Z,54.06
2023-03-20T01:02:41.888Z,54.06
2023-03-20T01:04:13.104Z,54.19
2023-03-20T01:05:37.595Z,54.17
2023-03-20T01:06:58.969Z,54.41
2023-03-20T01:08:25.249Z,54.38
2023-03-20T01:09:47.485Z,54.54
2023-03-20T01:11:15.886Z,54.70
2023-03-20T01:12:37.023Z,54.70
2023-03-20T01:13:59.796Z,55.05
2023-03-20T01:15:24.255Z,54.89
2023-03-20T01:16:46.888Z,55.04
2023-03-20T01:18:14.512Z,55.05
2023-03-20T01:19:38.479Z,55.05
2023-03-20T01:21:02.701Z,55.34
2023-03-20T01:22:38.375Z,55.49
2023-03-20T01:24:05.787Z,55.56
2023-03-20T01:25:30.714Z,55.58
2023-03-20T01:26:58.901Z,55.65
2023-03-20T01:28:25.961Z,56.03
2023-03-20T01:29:47.634Z,55.85
2023-03-20T01:31:11.022Z,55.89
2023-03-20T01:32:33.520Z,56.04
2023-03-20T01:33:55.522Z,56.16
2023-03-20T01:35:19.575Z,55.97
2023-03-20T01:36:42.374Z,56.04
2023-03-20T01:38:03.841Z,56.40
2023-03-20T01:39:35.846Z,56.65
2023-03-20T01:41:06.949Z,56.62
2023-03-20T01:42:32.334Z,56.65
2023-03-20T01:43:55.006Z,56.54
2023-03-20T01:45:20.574Z,56.81
2023-03-20T01:46:42.835Z,57.26
2023-03-20T01:48:17.092Z,57.44
2023-03-20T01:50:22.794Z,57.79
2023-03-20T01:51:48.914Z,57.51
2023-03-20T01:53:15.780Z,57.89
2023-03-20T01:54:43.198Z,57.52
2023-03-20T01:56:08.795Z,57.67
2023-03-20T01:57:40.740Z,58.09
2023-03-20T01:59:07.032Z,58.33
2023-03-20T02:00:28.234Z,58.52
2023-03-20T02:01:50.421Z,58.63
2023-03-20T02:03:13.713Z,58.87
2023-03-20T02:05:02.879Z,59.24
2023-03-20T02:06:27.774Z,59.30
2023-03-20T02:08:10.005Z,59.55
2023-03-20T02:09:32.515Z,59.63
2023-03-20T02:10:57.245Z,59.97
2023-03-20T02:12:22.812Z,60.26
2023-03-20T02:13:46.276Z,60.60
2023-03-20T02:15:09.860Z,60.84
2023-03-20T02:17:11.994Z,61.04
2023-03-20T02:18:43.015Z,61.11
2023-03-20T02:20:14.333Z,61.58
2023-03-20T02:22:24.158Z,62.04
2023-03-20T02:24:30.991Z,62.08
2023-03-20T02:26:28.196Z,62.17
2023-03-20T02:28:16.907Z,62.53
2023-03-20T02:30:33.116Z,63.01
2023-03-20T02:32:33.952Z,63.21
2023-03-20T02:34:29.802Z,63.66
2023-03-20T02:36:24.839Z,63.78
2023-03-20T02:38:06.455Z,63.87
2023-03-20T02:39:59.911Z,63.97
2023-03-20T02:41:25.756Z,63.43
2023-03-20T02:42:56.625Z,63.54
2023-03-20T02:44:24.754Z,64.08
2023-03-20T02:45:55.903Z,64.30
2023-03-20T02:47:25.470Z,64.61
2023-03-20T02:48:55.820Z,64.75
2023-03-20T02:50:25.592Z,64.77
2023-03-20T02:51:58.233Z,64.92
2023-03-20T02:53:36.166Z,65.00
2023-03-20T02:55:08.354Z,65.07
2023-03-20T02:56:35.537Z,65.02
2023-03-20T02:58:03.945Z,65.04
2023-03-20T02:59:33.694Z,65.38
2023-03-20T03:01:01.529Z,65.34
2023-03-20T03:02:34.657Z,65.36
2023-03-20T03:04:01.723Z,65.51
2023-03-20T03:05:27.095Z,65.56
2023-03-20T03:06:56.024Z,65.77
2023-03-20T03:08:20.775Z,65.69
2023-03-20T03:09:48.887Z,65.99
2023-03-20T03:11:11.207Z,65.55
2023-03-20T03:12:37.915Z,65.96
2023-03-20T03:14:00.525Z,66.01
2023-03-20T03:15:28.950Z,66.19
2023-03-20T03:16:52.600Z,66.19
2023-03-20T03:18:20.256Z,66.35
2023-03-20T03:19:48.221Z,66.32
2023-03-20T03:21:11.703Z,66.47
2023-03-20T03:22:36.459Z,66.35
2023-03-20T03:23:57.276Z,66.34
2023-03-20T03:25:22.966Z,66.00
2023-03-20T03:26:44.269Z,65.88
2023-03-20T03:28:10.254Z,66.11
2023-03-20T03:29:36.053Z,66.21
2023-03-20T03:30:59.164Z,66.45
2023-03-20T03:32:25.522Z,66.41
2023-03-20T03:33:49.541Z,66.63
2023-03-20T03:35:17.813Z,66.84
2023-03-20T03:36:49.579Z,66.83
2023-03-20T03:38:26.845Z,66.87
2023-03-20T03:39:54.773Z,66.89
2023-03-20T03:41:26.052Z,66.89
2023-03-20T03:42:54.684Z,66.88
2023-03-20T03:44:24.460Z,67.14
2023-03-20T03:45:53.519Z,67.04
2023-03-20T03:47:21.279Z,67.00
2023-03-20T03:48:47.783Z,67.05
2023-03-20T03:50:18.284Z,67.02
2023-03-20T03:51:43.325Z,67.14
2023-03-20T03:53:12.064Z,67.32
2023-03-20T03:54:40.606Z,67.24
2023-03-20T03:56:25.418Z,67.17
2023-03-20T03:57:51.482Z,67.36
2023-03-20T03:59:22.319Z,67.13
2023-03-20T04:00:54.139Z,67.52
2023-03-20T04:02:18.055Z,67.60
2023-03-20T04:03:42.276Z,67.38
2023-03-20T04:05:07.080Z,67.84
2023-03-20T04:06:28.815Z,67.68
2023-03-20T04:07:55.548Z,67.79
2023-03-20T04:09:17.648Z,67.47
2023-03-20T04:10:38.999Z,67.88
2023-03-20T04:12:05.554Z,67.67
2023-03-20T04:13:27.336Z,67.86
2023-03-20T04:14:49.505Z,67.85
2023-03-20T04:16:14.488Z,68.00
2023-03-20T04:17:38.609Z,67.99
2023-03-20T04:19:00.456Z,67.96
2023-03-20T04:20:23.582Z,67.93
2023-03-20T04:21:45.798Z,68.04
2023-03-20T04:23:07.804Z,68.25
2023-03-20T04:24:30.673Z,68.37
2023-03-20T04:25:53.154Z,68.33
2023-03-20T04:27:16.949Z,68.28
2023-03-20T04:28:39.583Z,68.63
2023-03-20T04:30:20.457Z,68.50
2023-03-20T04:32:01.582Z,68.57
2023-03-20T04:33:40.798Z,68.78
2023-03-20T04:35:35.830Z,68.53
2023-03-20T04:37:08.539Z,69.07
2023-03-20T04:38:45.469Z,69.07
2023-03-20T04:40:08.831Z,69.35
2023-03-20T04:41:31.997Z,69.47
2023-03-20T04:42:54.309Z,69.52
2023-03-20T04:44:16.362Z,69.63
2023-03-20T04:45:40.504Z,69.92
2023-03-20T04:47:05.583Z,69.97
2023-03-20T04:48:30.037Z,69.98
2023-03-20T04:49:51.545Z,70.32
2023-03-20T04:51:15.248Z,70.25
2023-03-20T04:52:44.980Z,70.48
2023-03-20T04:54:07.128Z,70.58
2023-03-20T04:55:29.905Z,70.43
2023-03-20T04:56:52.597Z,71.05
2023-03-20T04:58:18.353Z,70.98
2023-03-20T04:59:42.407Z,71.34
2023-03-20T05:01:05.316Z,71.27
2023-03-20T05:02:28.124Z,71.02
2023-03-20T05:03:50.545Z,71.26
2023-03-20T05:05:13.199Z,71.29
2023-03-20T05:06:35.539Z,71.44
2023-03-20T05:07:57.848Z,71.59
2023-03-20T05:09:26.282Z,71.49
2023-03-20T05:10:49.163Z,71.35
2023-03-20T05:12:34.643Z,71.48
2023-03-20T05:14:17.328Z,71.53
2023-03-20T05:15:44.730Z,71.49
2023-03-20T05:17:21.694Z,71.43
2023-03-20T05:19:02.411Z,71.47
2023-03-20T05:20:47.547Z,71.27
2023-03-20T05:22:24.718Z,71.65
2023-03-20T05:24:03.893Z,71.59
2023-03-20T05:26:01.768Z,71.37
2023-03-20T05:27:56.262Z,71.32
2023-03-20T05:29:46.448Z,71.40
2023-03-20T05:31:17.718Z,71.28
2023-03-20T05:32:57.154Z,71.47
2023-03-20T05:34:22.488Z,71.25
2023-03-20T05:36:07.611Z,71.40
2023-03-20T05:37:50.308Z,71.14
2023-03-20T05:39:32.771Z,71.20
2023-03-20T05:41:23.110Z,71.01
2023-03-20T05:42:57.287Z,70.74
2023-03-20T05:44:56.632Z,70.73
2023-03-20T05:46:27.668Z,70.71
2023-03-20T05:48:09.009Z,70.62
2023-03-20T05:49:31.269Z,70.79
2023-03-20T05:51:19.072Z,70.52
2023-03-20T05:53:04.030Z,70.16
2023-03-20T05:54:40.522Z,70.01
2023-03-20T05:56:22.929Z,69.85
2023-03-20T05:57:57.948Z,69.95
2023-03-20T05:59:25.772Z,69.82
2023-03-20T06:01:08.617Z,69.66
2023-03-20T06:02:37.014Z,69.84
2023-03-20T06:04:13.450Z,69.72
2023-03-20T06:05:52.467Z,69.66
2023-03-20T06:07:13.404Z,69.40
2023-03-20T06:08:38.693Z,69.05
2023-03-20T06:10:00.294Z,68.73
2023-03-20T06:11:23.480Z,68.91
2023-03-20T06:12:45.863Z,68.74
2023-03-20T06:14:07.573Z,68.70
2023-03-20T06:15:36.459Z,68.65
2023-03-20T06:17:09.026Z,68.38
2023-03-20T06:18:31.832Z,68.32
2023-03-20T06:19:54.699Z,68.19
2023-03-20T06:21:18.087Z,68.11
2023-03-20T06:22:40.249Z,68.21
2023-03-20T06:24:03.266Z,68.25
2023-03-20T06:25:25.976Z,67.93
2023-03-20T06:26:47.263Z,68.03
2023-03-20T06:28:09.894Z,67.99
2023-03-20T06:29:33.010Z,67.93
2023-03-20T06:31:07.346Z,68.01
2023-03-20T06:32:31.411Z,67.74
2023-03-20T06:33:55.961Z,67.82
2023-03-20T06:35:18.313Z,67.76
2023-03-20T06:36:45.143Z,67.67
2023-03-20T06:38:13.647Z,67.64
2023-03-20T06:39:37.022Z,67.54
2023-03-20T06:41:01.036Z,67.65
2023-03-20T06:42:23.563Z,67.36
2023-03-20T06:43:45.841Z,67.04
2023-03-20T06:45:09.545Z,67.30
2023-03-20T06:46:47.265Z,67.36
2023-03-20T06:48:11.387Z,67.22
2023-03-20T06:49:32.985Z,67.36
2023-03-20T06:50:57.444Z,67.23
2023-03-20T06:52:28.387Z,67.30
2023-03-20T06:54:08.829Z,67.17
2023-03-20T06:55:30.226Z,67.04
2023-03-20T06:56:52.873Z,67.40
2023-03-20T06:58:16.868Z,67.53
2023-03-20T06:59:39.928Z,67.41
2023-03-20T07:01:02.584Z,67.45
2023-03-20T07:02:24.692Z,67.63
2023-03-20T07:03:48.758Z,67.91
2023-03-20T07:05:16.402Z,68.12
2023-03-20T07:06:39.272Z,68.28
2023-03-20T07:08:01.621Z,68.66
2023-03-20T07:09:23.520Z,68.70
2023-03-20T07:10:45.829Z,68.70
2023-03-20T07:12:14.599Z,68.92
2023-03-20T07:13:38.137Z,69.27
2023-03-20T07:15:14.358Z,69.11
2023-03-20T07:16:36.886Z,69.33
2023-03-20T07:17:59.429Z,69.60
2023-03-20T07:19:28.066Z,69.51
2023-03-20T07:20:53.110Z,69.35
2023-03-20T07:22:22.555Z,69.26
2023-03-20T07:23:46.707Z,69.43
2023-03-20T07:25:10.870Z,69.35
2023-03-20T07:26:33.131Z,69.33
2023-03-20T07:27:57.017Z,69.44
2023-03-20T07:29:22.081Z,69.20
2023-03-20T07:30:44.211Z,69.18
2023-03-20T07:32:09.842Z,69.09
2023-03-20T07:33:34.936Z,69.12
2023-03-20T07:34:58.686Z,68.89
2023-03-20T07:36:21.407Z,68.95
2023-03-20T07:37:44.638Z,69.09
2023-03-20T07:39:07.138Z,68.95
2023-03-20T07:40:30.771Z,68.73
2023-03-20T07:41:57.915Z,68.59
2023-03-20T07:43:45.379Z,68.31
2023-03-20T07:45:20.058Z,68.30
2023-03-20T07:46:42.719Z,67.88
2023-03-20T07:48:08.051Z,67.62
2023-03-20T07:49:30.345Z,67.46
2023-03-20T07:50:53.969Z,67.37
2023-03-20T07:52:17.350Z,67.06
2023-03-20T07:53:39.714Z,67.08
2023-03-20T07:55:01.794Z,66.38
2023-03-20T07:56:24.065Z,66.57
2023-03-20T07:57:46.337Z,66.49
2023-03-20T07:59:09.108Z,66.48
2023-03-20T08:00:31.500Z,66.43
2023-03-20T08:01:53.988Z,66.21
2023-03-20T08:03:16.699Z,66.47
2023-03-20T08:04:39.169Z,66.36
2023-03-20T08:06:04.364Z,66.25
2023-03-20T08:07:26.741Z,66.23
2023-03-20T08:08:52.049Z,66.23
2023-03-20T08:10:14.203Z,66.50
2023-03-20T08:11:36.861Z,66.44
2023-03-20T08:12:59.031Z,66.04
2023-03-20T08:14:20.913Z,65.82
2023-03-20T08:16:01.756Z,65.49
2023-03-20T08:17:23.818Z,65.79
2023-03-20T08:18:46.043Z,65.61
2023-03-20T08:20:08.859Z,65.37
2023-03-20T08:21:33.650Z,65.35
2023-03-20T08:22:58.027Z,65.10
2023-03-20T08:24:20.079Z,65.06
2023-03-20T08:25:42.242Z,65.02
2023-03-20T08:27:04.365Z,64.82
2023-03-20T08:28:46.231Z,64.67
2023-03-20T08:30:10.993Z,64.71
2023-03-20T08:31:33.520Z,64.68
2023-03-20T08:32:55.947Z,64.82
2023-03-20T08:34:18.231Z,64.91
2023-03-20T08:35:43.240Z,64.91
2023-03-20T08:37:08.114Z,64.82
2023-03-20T08:38:30.417Z,65.14
2023-03-20T08:39:52.617Z,64.80
2023-03-20T08:41:14.952Z,64.68
2023-03-20T08:42:37.283Z,64.87
2023-03-20T08:43:58.878Z,64.88
2023-03-20T08:45:21.693Z,64.78
2023-03-20T08:46:44.895Z,64.48
2023-03-20T08:48:06.975Z,64.38
2023-03-20T08:49:29.602Z,64.21
2023-03-20T08:50:51.711Z,64.15
2023-03-20T08:52:15.750Z,64.30
2023-03-20T08:53:38.024Z,64.37
2023-03-20T08:55:00.268Z,64.52
2023-03-20T08:56:24.945Z,64.57
2023-03-20T08:57:46.768Z,64.40
2023-03-20T08:59:08.814Z,64.47
2023-03-20T09:00:31.404Z,64.94
2023-03-20T09:01:53.304Z,64.79
2023-03-20T09:03:16.713Z,64.73
2023-03-20T09:04:38.979Z,64.92
2023-03-20T09:06:01.512Z,64.89
2023-03-20T09:07:24.958Z,64.92
2023-03-20T09:08:49.211Z,65.06
2023-03-20T09:10:13.177Z,64.52
2023-03-20T09:11:35.550Z,64.59
2023-03-20T09:13:00.585Z,64.38
2023-03-20T09:14:22.880Z,64.25
2023-03-20T09:15:44.506Z,64.18
2023-03-20T09:17:07.290Z,64.13
2023-03-20T09:18:29.623Z,63.94
2023-03-20T09:19:54.429Z,63.95
2023-03-20T09:21:15.765Z,64.05
2023-03-20T09:22:41.328Z,63.84
2023-03-20T09:24:03.801Z,63.56
2023-03-20T09:25:26.740Z,63.73
2023-03-20T09:26:49.345Z,63.17
2023-03-20T09:28:12.190Z,62.98
2023-03-20T09:29:34.555Z,62.69
2023-03-20T09:31:01.028Z,62.36
2023-03-20T09:32:23.520Z,62.01
2023-03-20T09:33:45.788Z,61.73
2023-03-20T09:35:08.532Z,61.49
2023-03-20T09:36:30.421Z,61.38
2023-03-20T09:37:54.406Z,61.30
2023-03-20T09:39:16.708Z,60.80
2023-03-20T09:40:52.338Z,60.96
2023-03-20T09:42:32.091Z,60.70
2023-03-20T09:44:09.052Z,60.50
2023-03-20T09:45:44.956Z,60.30
2023-03-20T09:47:20.546Z,60.51
2023-03-20T09:48:53.128Z,60.42
2023-03-20T09:50:27.530Z,60.37
2023-03-20T09:51:55.124Z,60.13
2023-03-20T09:53:24.074Z,60.17
2023-03-20T09:54:54.543Z,59.83
2023-03-20T09:56:22.570Z,59.41
2023-03-20T09:57:49.325Z,59.30
2023-03-20T09:59:17.574Z,59.01
2023-03-20T10:00:42.459Z,58.45
2023-03-20T10:02:09.560Z,58.26
2023-03-20T10:03:40.460Z,57.70
2023-03-20T10:05:04.636Z,57.63
2023-03-20T10:06:27.122Z,57.04
2023-03-20T10:07:49.201Z,56.73
2023-03-20T10:09:22.485Z,56.60
2023-03-20T10:10:51.835Z,55.74
2023-03-20T10:12:32.475Z,55.04
2023-03-20T10:14:18.909Z,54.72
2023-03-20T10:15:48.350Z,54.01
2023-03-20T10:17:32.099Z,53.02
2023-03-20T10:19:06.957Z,52.14
2023-03-20T10:20:36.410Z,51.48
2023-03-20T10:22:03.595Z,50.73
2023-03-20T10:23:34.380Z,50.13
2023-03-20T10:25:04.700Z,49.33
2023-03-20T10:26:33.590Z,49.37
2023-03-20T10:28:00.648Z,49.71
2023-03-20T10:29:39.834Z,49.11
2023-03-20T10:31:17.967Z,49.62
2023-03-20T10:32:48.744Z,49.33
2023-03-20T10:34:26.820Z,49.40
2023-03-20T10:35:59.223Z,49.50
2023-03-20T10:37:44.401Z,49.00
2023-03-20T10:39:14.634Z,48.84
2023-03-20T10:40:41.846Z,47.98
2023-03-20T10:42:11.485Z,48.18
2023-03-20T10:43:39.408Z,47.62
2023-03-20T10:45:08.425Z,47.37
2023-03-20T10:46:34.742Z,46.89
2023-03-20T10:48:00.659Z,46.83
2023-03-20T10:49:33.427Z,46.01
2023-03-20T10:50:59.036Z,45.21
2023-03-20T10:52:24.665Z,44.96
2023-03-20T10:53:51.050Z,44.48
2023-03-20T10:55:17.633Z,44.37
2023-03-20T10:56:48.701Z,43.79
2023-03-20T10:58:19.736Z,43.42
2023-03-20T10:59:51.928Z,43.58
2023-03-20T11:01:16.752Z,42.81
2023-03-20T11:02:40.745Z,42.68
2023-03-20T11:04:05.430Z,42.65
2023-03-20T11:05:32.571Z,42.30
2023-03-20T11:07:02.947Z,42.18
2023-03-20T11:08:27.436Z,42.23
2023-03-20T11:10:08.955Z,41.93
2023-03-20T11:11:36.186Z,41.80
2023-03-20T11:13:00.638Z,41.49
2023-03-20T11:14:25.035Z,41.62
2023-03-20T11:15:47.455Z,41.53
2023-03-20T11:17:14.806Z,41.54
2023-03-20T11:18:37.342Z,41.20
2023-03-20T11:20:05.533Z,40.83
2023-03-20T11:21:32.444Z,40.92
2023-03-20T11:23:02.281Z,40.75
2023-03-20T11:24:29.102Z,40.99
2023-03-20T11:25:54.024Z,41.25
2023-03-20T11:27:19.070Z,41.47
2023-03-20T11:28:43.817Z,41.45
2023-03-20T11:30:08.963Z,41.68
2023-03-20T11:31:35.324Z,41.69
2023-03-20T11:33:02.232Z,41.76
2023-03-20T11:34:27.991Z,41.67
2023-03-20T11:35:56.833Z,42.53
2023-03-20T11:37:26.181Z,42.39
2023-03-20T11:38:48.705Z,42.45
2023-03-20T11:40:18.618Z,42.36
2023-03-20T11:41:47.651Z,42.24
2023-03-20T11:43:13.872Z,42.46
2023-03-20T11:44:42.068Z,42.53
2023-03-20T11:46:05.380Z,42.65
2023-03-20T11:47:34.255Z,43.13
2023-03-20T11:49:09.514Z,43.26
2023-03-20T11:50:35.555Z,43.02
2023-03-20T11:52:02.267Z,43.27
2023-03-20T11:53:30.214Z,43.36
2023-03-20T11:54:59.078Z,43.08
2023-03-20T11:56:25.109Z,42.90
2023-03-20T11:57:47.558Z,43.06
2023-03-20T11:59:18.434Z,43.09
2023-03-20T12:00:44.009Z,43.44
2023-03-20T12:02:20.529Z,43.25
2023-03-20T12:03:52.245Z,43.21
2023-03-20T12:05:30.453Z,43.25
2023-03-20T12:06:58.264Z,43.12
2023-03-20T12:08:25.145Z,43.18
2023-03-20T12:09:52.328Z,43.17
2023-03-20T12:11:28.591Z,43.07
2023-03-20T12:12:56.197Z,43.31
2023-03-20T12:14:28.263Z,43.46
2023-03-20T12:15:56.906Z,43.42
2023-03-20T12:17:30.316Z,43.07
2023-03-20T12:18:56.831Z,43.39
2023-03-20T12:20:28.860Z,43.26
2023-03-20T12:21:55.489Z,43.75
2023-03-20T12:23:32.570Z,43.73
2023-03-20T12:25:02.797Z,43.89
2023-03-20T12:26:33.443Z,44.15
2023-03-20T12:28:04.544Z,44.92
2023-03-20T12:29:33.457Z,44.61
2023-03-20T12:31:07.503Z,45.40
2023-03-20T12:32:37.266Z,45.41
2023-03-20T12:34:06.140Z,45.36
2023-03-20T12:35:30.617Z,45.35
2023-03-20T12:36:54.605Z,45.61
2023-03-20T12:38:26.452Z,45.75
2023-03-20T12:39:52.349Z,45.81
2023-03-20T12:41:17.485Z,46.45
2023-03-20T12:42:47.292Z,46.43
2023-03-20T12:44:34.298Z,46.58
2023-03-20T12:46:05.555Z,46.86
2023-03-20T12:48:02.173Z,46.84
2023-03-20T12:49:38.212Z,46.84
2023-03-20T12:51:09.117Z,47.07
2023-03-20T12:52:42.315Z,46.97
2023-03-20T12:54:21.955Z,47.14
2023-03-20T12:55:56.559Z,47.35
2023-03-20T12:57:29.392Z,47.37
2023-03-20T12:58:57.669Z,47.77
2023-03-20T13:00:26.222Z,47.74
2023-03-20T13:01:54.827Z,47.58
2023-03-20T13:03:29.713Z,47.61
2023-03-20T13:05:04.428Z,48.17
2023-03-20T13:06:38.463Z,48.30
2023-03-20T13:08:30.602Z,48.34
2023-03-20T13:10:04.183Z,48.05
2023-03-20T13:11:32.696Z,47.69
2023-03-20T13:13:06.722Z,47.31
2023-03-20T13:14:36.689Z,46.90
2023-03-20T13:16:09.994Z,47.43
2023-03-20T13:17:38.831Z,46.57
2023-03-20T13:19:08.710Z,45.88
2023-03-20T13:20:37.540Z,45.49
2023-03-20T13:22:05.480Z,45.89
2023-03-20T13:23:43.864Z,46.18
2023-03-20T13:25:51.122Z,45.93
2023-03-20T13:27:28.642Z,46.51
2023-03-20T13:29:01.546Z,46.88
2023-03-20T13:30:33.408Z,46.89
2023-03-20T13:32:05.461Z,46.40
2023-03-20T13:33:43.201Z,46.94
2023-03-20T13:35:25.258Z,46.28
2023-03-20T13:37:22.907Z,46.29
2023-03-20T13:38:49.731Z,45.33
2023-03-20T13:40:22.523Z,44.87
2023-03-20T13:41:47.554Z,44.58
2023-03-20T13:43:20.719Z,43.76
2023-03-20T13:44:44.192Z,43.78
2023-03-20T13:46:10.429Z,43.55
2023-03-20T13:47:34.000Z,43.27
2023-03-20T13:49:04.758Z,43.65
2023-03-20T13:50:41.184Z,43.43
2023-03-20T13:52:15.391Z,42.83
2023-03-20T13:53:51.217Z,42.76
2023-03-20T13:55:24.816Z,43.05
2023-03-20T13:56:56.034Z,43.01
2023-03-20T13:59:03.870Z,43.51
2023-03-20T14:00:36.387Z,43.86
2023-03-20T14:02:05.848Z,44.07
2023-03-20T14:03:31.000Z,44.14
2023-03-20T14:05:05.926Z,44.37
2023-03-20T14:06:56.136Z,44.63
2023-03-20T14:08:24.905Z,44.87
2023-03-20T14:09:47.558Z,45.05
2023-03-20T14:11:32.854Z,45.30
2023-03-20T14:12:57.397Z,45.82
2023-03-20T14:14:27.232Z,45.72
2023-03-20T14:15:59.097Z,46.04
2023-03-20T14:17:23.226Z,46.74
2023-03-20T14:18:48.752Z,46.99
2023-03-20T14:20:27.424Z,47.02
2023-03-20T14:21:52.374Z,47.38
2023-03-20T14:23:20.863Z,48.12
2023-03-20T14:24:49.809Z,48.40
2023-03-20T14:26:20.586Z,48.60
2023-03-20T14:27:55.959Z,48.89
2023-03-20T14:29:33.120Z,48.91
2023-03-20T14:31:14.342Z,49.38
2023-03-20T14:32:37.883Z,49.67
2023-03-20T14:34:16.963Z,49.65
2023-03-20T14:35:45.054Z,50.11
2023-03-20T14:37:31.955Z,50.02
2023-03-20T14:39:04.226Z,50.26
2023-03-20T14:40:32.777Z,50.54
2023-03-20T14:42:12.974Z,50.81
2023-03-20T14:43:58.896Z,50.83
2023-03-20T14:45:37.872Z,50.35
2023-03-20T14:47:06.966Z,50.09
2023-03-20T14:48:33.631Z,49.81
2023-03-20T14:50:04.274Z,49.88
2023-03-20T14:51:38.506Z,49.57
2023-03-20T14:53:16.679Z,49.32
2023-03-20T14:54:42.315Z,49.56
2023-03-20T14:56:11.904Z,49.63
2023-03-20T14:57:54.683Z,49.57
2023-03-20T14:59:19.608Z,49.66
2023-03-20T15:00:48.084Z,49.48
2023-03-20T15:02:30.412Z,49.16
2023-03-20T15:03:57.347Z,49.37
2023-03-20T15:05:26.676Z,49.13
2023-03-20T15:06:56.094Z,49.15
2023-03-20T15:08:23.542Z,48.74
2023-03-20T15:09:51.128Z,48.63
2023-03-20T15:11:16.039Z,48.35
2023-03-20T15:12:40.238Z,48.46
2023-03-20T15:14:04.711Z,48.57
2023-03-20T15:15:31.605Z,48.29
2023-03-20T15:17:00.507Z,48.41
2023-03-20T15:21:19.787Z,48.57
2023-03-20T15:23:00.761Z,48.60
2023-03-20T15:24:24.431Z,48.66
2023-03-20T15:25:49.009Z,49.12
2023-03-20T15:27:15.608Z,49.16
2023-03-20T15:28:55.010Z,49.28
2023-03-20T15:30:50.500Z,49.63
2023-03-20T15:32:15.154Z,49.61
2023-03-20T15:33:42.669Z,49.73
2023-03-20T15:35:16.917Z,49.79
2023-03-20T15:36:41.237Z,49.81
2023-03-20T15:38:10.064Z,49.95
2023-03-20T15:39:44.630Z,50.29
2023-03-20T15:41:09.736Z,50.47
2023-03-20T15:42:33.273Z,50.58
2023-03-20T15:43:55.600Z,50.76
2023-03-20T15:45:27.296Z,51.11
2023-03-20T15:46:59.602Z,51.01
2023-03-20T15:48:26.108Z,51.32
2023-03-20T15:49:53.219Z,51.34
2023-03-20T15:51:16.267Z,51.31
2023-03-20T15:52:43.453Z,51.39
2023-03-20T15:54:08.366Z,51.46
2023-03-20T15:55:31.080Z,51.50
2023-03-20T15:57:00.889Z,51.64
2023-03-20T15:58:25.473Z,51.67
2023-03-20T15:59:47.978Z,51.80
2023-03-20T16:01:13.554Z,51.80
2023-03-20T16:02:38.731Z,51.94
2023-03-20T16:04:01.483Z,52.05
2023-03-20T16:05:28.769Z,52.25
2023-03-20T16:06:55.689Z,51.99
2023-03-20T16:08:25.863Z,52.28
2023-03-20T16:09:52.980Z,52.39
2023-03-20T16:11:17.129Z,52.43
2023-03-20T16:12:39.637Z,52.64
2023-03-20T16:14:01.149Z,52.63
2023-03-20T16:15:27.846Z,52.76
2023-03-20T16:16:52.139Z,53.18
2023-03-20T16:18:18.069Z,53.31
2023-03-20T16:19:41.029Z,53.37
2023-03-20T16:21:08.076Z,53.68
2023-03-20T16:22:34.799Z,53.89
2023-03-20T16:24:03.123Z,53.90
2023-03-20T16:25:26.715Z,54.24
2023-03-20T16:26:52.758Z,54.30
2023-03-20T16:28:17.329Z,54.53
2023-03-20T16:29:45.646Z,54.74
2023-03-20T16:31:13.275Z,54.94
2023-03-20T16:32:39.778Z,55.30
2023-03-20T16:34:03.409Z,55.21
2023-03-20T16:35:33.066Z,55.47
2023-03-20T16:36:59.172Z,55.63
2023-03-20T16:38:31.920Z,55.73
2023-03-20T16:40:06.377Z,55.99
2023-03-20T16:41:33.934Z,55.98
2023-03-20T16:42:59.247Z,56.27
2023-03-20T16:44:32.519Z,56.45
2023-03-20T16:45:59.687Z,56.81
2023-03-20T16:47:24.280Z,56.73
2023-03-20T16:48:46.580Z,56.79
2023-03-20T16:50:22.361Z,57.14
2023-03-20T16:51:51.357Z,57.24
2023-03-20T16:53:17.336Z,57.31
2023-03-20T16:54:43.190Z,57.49
2023-03-20T16:56:07.697Z,57.48
2023-03-20T16:57:39.605Z,57.79
2023-03-20T16:59:09.086Z,57.95
2023-03-20T17:00:35.763Z,58.09
2023-03-20T17:02:01.834Z,58.33
2023-03-20T17:03:32.403Z,58.42
2023-03-20T17:04:58.356Z,58.37
2023-03-20T17:06:39.284Z,58.38
2023-03-20T17:08:16.529Z,58.57
2023-03-20T17:09:56.510Z,58.67
2023-03-20T17:11:28.138Z,58.81
2023-03-20T17:12:53.030Z,58.84
2023-03-20T17:14:15.702Z,58.84
2023-03-20T17:15:38.278Z,59.18
2023-03-20T17:17:00.701Z,59.19
2023-03-20T17:18:23.085Z,59.34
2023-03-20T17:19:46.039Z,59.53
2023-03-20T17:21:08.723Z,59.50
2023-03-20T17:22:31.195Z,59.58
2023-03-20T17:23:53.329Z,59.65
2023-03-20T17:25:16.106Z,59.74
2023-03-20T17:26:38.609Z,59.63
2023-03-20T17:28:02.484Z,59.82
2023-03-20T17:29:24.904Z,59.89
2023-03-20T17:30:49.779Z,59.99
2023-03-20T17:32:13.412Z,60.09
2023-03-20T17:33:36.717Z,60.33
2023-03-20T17:34:58.893Z,60.21
2023-03-20T17:36:27.302Z,60.34
2023-03-20T17:37:49.747Z,60.39
2023-03-20T17:39:18.473Z,60.42
2023-03-20T17:40:43.664Z,60.39
2023-03-20T17:42:07.781Z,60.68
2023-03-20T17:43:33.231Z,60.77
2023-03-20T17:44:55.716Z,61.00
2023-03-20T17:46:22.751Z,60.81
2023-03-20T17:47:49.508Z,61.03
2023-03-20T17:49:16.348Z,61.06
2023-03-20T17:50:38.727Z,61.04
2023-03-20T17:52:00.997Z,61.25
2023-03-20T17:53:25.680Z,61.43
2023-03-20T17:54:52.581Z,61.48
2023-03-20T17:56:19.658Z,61.62
2023-03-20T17:57:42.534Z,61.71
2023-03-20T17:59:12.817Z,61.94
2023-03-20T18:00:41.312Z,62.02
2023-03-20T18:02:12.080Z,62.01
2023-03-20T18:03:44.978Z,62.08
2023-03-20T18:05:10.246Z,62.24
2023-03-20T18:06:38.759Z,62.41
2023-03-20T18:08:09.535Z,62.47
2023-03-20T18:09:33.115Z,62.65
2023-03-20T18:10:57.989Z,62.79
2023-03-20T18:12:24.676Z,62.69
2023-03-20T18:13:49.143Z,62.85
2023-03-20T18:15:17.348Z,63.06
2023-03-20T18:16:39.656Z,62.93
2023-03-20T18:18:08.905Z,63.15
2023-03-20T18:19:49.232Z,63.33
2023-03-20T18:21:14.480Z,63.23
2023-03-20T18:22:36.657Z,63.48
2023-03-20T18:23:59.075Z,63.18
2023-03-20T18:25:26.091Z,63.38
2023-03-20T18:26:52.255Z,63.38
2023-03-20T18:28:20.823Z,63.48
2023-03-20T18:29:44.823Z,63.52
2023-03-20T18:31:19.407Z,63.70
2023-03-20T18:32:44.681Z,63.69
2023-03-20T18:34:07.582Z,63.77
2023-03-20T18:35:32.657Z,63.74
2023-03-20T18:37:07.590Z,63.58
2023-03-20T18:38:31.431Z,63.95
2023-03-20T18:40:01.053Z,63.73
2023-03-20T18:41:25.378Z,63.93
2023-03-20T18:42:47.711Z,64.00
2023-03-20T18:44:09.741Z,63.98
2023-03-20T18:45:37.795Z,63.85
2023-03-20T18:47:04.832Z,63.98
2023-03-20T18:48:31.545Z,63.87
2023-03-20T18:49:54.194Z,64.13
2023-03-20T18:51:16.056Z,63.77
2023-03-20T18:52:37.228Z,63.79
2023-03-20T18:54:04.721Z,63.86
2023-03-20T18:55:28.885Z,64.07
2023-03-20T18:56:52.212Z,64.11
2023-03-20T18:58:24.615Z,64.27
2023-03-20T18:59:46.684Z,64.02
2023-03-20T19:01:11.426Z,64.21
2023-03-20T19:02:38.195Z,64.09